sensor_id;sensor_type;location;lat;lon;timestamp;P1;durP1;ratioP1;P2;durP2;ratioP2
67869;SDS011;54673;52.262;6.830;2023-01-30T00:01:25;6.73;;;4.40;;
67869;SDS011;54673;52.262;6.830;2023-01-30T00:03:53;9.32;;;4.50;;
67869;SDS011;54673;52.262;6.830;2023-01-30T00:06:19;10.37;;;4.87;;
67869;SDS011;54673;52.262;6.830;2023-01-30T00:08:45;8.70;;;4.95;;
67869;SDS011;54673;52.262;6.830;2023-01-30T00:11:12;8.18;;;4.97;;
67869;SDS011;54673;52.262;6.830;2023-01-30T00:13:40;8.93;;;4.40;;
67869;SDS011;54673;52.262;6.830;2023-01-30T00:16:07;8.75;;;4.80;;
67869;SDS011;54673;52.262;6.830;2023-01-30T00:18:37;9.17;;;5.20;;
67869;SDS011;54673;52.262;6.830;2023-01-30T00:21:04;9.25;;;4.68;;
67869;SDS011;54673;52.262;6.830;2023-01-30T00:23:32;10.30;;;4.95;;
67869;SDS011;54673;52.262;6.830;2023-01-30T00:25:58;9.03;;;5.17;;
67869;SDS011;54673;52.262;6.830;2023-01-30T00:28:24;8.45;;;4.72;;
67869;SDS011;54673;52.262;6.830;2023-01-30T00:30:51;9.00;;;4.83;;
67869;SDS011;54673;52.262;6.830;2023-01-30T00:33:18;10.07;;;5.45;;
67869;SDS011;54673;52.262;6.830;2023-01-30T00:35:44;9.32;;;4.93;;
67869;SDS011;54673;52.262;6.830;2023-01-30T00:38:11;9.53;;;5.17;;
67869;SDS011;54673;52.262;6.830;2023-01-30T00:40:36;10.00;;;4.90;;
67869;SDS011;54673;52.262;6.830;2023-01-30T00:43:02;9.47;;;4.93;;
67869;SDS011;54673;52.262;6.830;2023-01-30T00:45:47;10.45;;;5.22;;
67869;SDS011;54673;52.262;6.830;2023-01-30T00:48:31;11.70;;;5.72;;
67869;SDS011;54673;52.262;6.830;2023-01-30T00:50:57;9.83;;;5.50;;
67869;SDS011;54673;52.262;6.830;2023-01-30T00:53:23;9.60;;;5.33;;
67869;SDS011;54673;52.262;6.830;2023-01-30T00:55:52;9.60;;;5.25;;
67869;SDS011;54673;52.262;6.830;2023-01-30T00:58:18;11.73;;;5.93;;
67869;SDS011;54673;52.262;6.830;2023-01-30T01:00:44;9.57;;;5.30;;
67869;SDS011;54673;52.262;6.830;2023-01-30T01:03:09;13.25;;;5.72;;
67869;SDS011;54673;52.262;6.830;2023-01-30T01:05:35;9.20;;;5.40;;
67869;SDS011;54673;52.262;6.830;2023-01-30T01:08:01;8.73;;;5.47;;
67869;SDS011;54673;52.262;6.830;2023-01-30T01:10:26;9.75;;;5.63;;
67869;SDS011;54673;52.262;6.830;2023-01-30T01:12:52;9.30;;;4.90;;
67869;SDS011;54673;52.262;6.830;2023-01-30T01:15:18;9.13;;;5.00;;
67869;SDS011;54673;52.262;6.830;2023-01-30T01:17:45;10.65;;;5.65;;
67869;SDS011;54673;52.262;6.830;2023-01-30T01:20:11;10.13;;;5.23;;
67869;SDS011;54673;52.262;6.830;2023-01-30T01:22:37;12.20;;;6.43;;
67869;SDS011;54673;52.262;6.830;2023-01-30T01:25:03;11.10;;;5.67;;
67869;SDS011;54673;52.262;6.830;2023-01-30T01:27:29;8.38;;;5.30;;
67869;SDS011;54673;52.262;6.830;2023-01-30T01:29:55;9.77;;;5.63;;
67869;SDS011;54673;52.262;6.830;2023-01-30T01:32:21;8.63;;;5.38;;
67869;SDS011;54673;52.262;6.830;2023-01-30T01:34:47;12.23;;;6.07;;
67869;SDS011;54673;52.262;6.830;2023-01-30T01:37:12;9.60;;;5.60;;
67869;SDS011;54673;52.262;6.830;2023-01-30T01:39:38;9.13;;;5.07;;
67869;SDS011;54673;52.262;6.830;2023-01-30T01:42:23;9.38;;;5.20;;
67869;SDS011;54673;52.262;6.830;2023-01-30T01:44:57;9.37;;;5.60;;
67869;SDS011;54673;52.262;6.830;2023-01-30T01:47:48;9.75;;;5.82;;
67869;SDS011;54673;52.262;6.830;2023-01-30T01:50:42;13.90;;;5.50;;
67869;SDS011;54673;52.262;6.830;2023-01-30T01:53:12;10.40;;;5.57;;
67869;SDS011;54673;52.262;6.830;2023-01-30T01:55:41;10.02;;;5.93;;
67869;SDS011;54673;52.262;6.830;2023-01-30T02:00:36;10.15;;;5.60;;
67869;SDS011;54673;52.262;6.830;2023-01-30T02:03:04;11.60;;;6.70;;
67869;SDS011;54673;52.262;6.830;2023-01-30T02:05:34;10.02;;;5.65;;
67869;SDS011;54673;52.262;6.830;2023-01-30T02:13:30;9.45;;;5.75;;
67869;SDS011;54673;52.262;6.830;2023-01-30T02:15:56;9.67;;;5.80;;
67869;SDS011;54673;52.262;6.830;2023-01-30T02:18:24;11.80;;;5.97;;
67869;SDS011;54673;52.262;6.830;2023-01-30T02:23:38;10.17;;;5.87;;
67869;SDS011;54673;52.262;6.830;2023-01-30T02:29:13;9.30;;;5.53;;
67869;SDS011;54673;52.262;6.830;2023-01-30T02:32:10;9.30;;;5.25;;
67869;SDS011;54673;52.262;6.830;2023-01-30T02:39:46;10.13;;;5.00;;
67869;SDS011;54673;52.262;6.830;2023-01-30T02:42:33;9.18;;;5.30;;
67869;SDS011;54673;52.262;6.830;2023-01-30T02:48:04;7.57;;;5.20;;
67869;SDS011;54673;52.262;6.830;2023-01-30T02:53:06;9.77;;;5.10;;
67869;SDS011;54673;52.262;6.830;2023-01-30T02:55:32;8.13;;;4.93;;
67869;SDS011;54673;52.262;6.830;2023-01-30T02:57:58;7.50;;;4.70;;
67869;SDS011;54673;52.262;6.830;2023-01-30T03:00:30;9.27;;;5.00;;
67869;SDS011;54673;52.262;6.830;2023-01-30T03:06:01;7.33;;;5.00;;
67869;SDS011;54673;52.262;6.830;2023-01-30T03:11:20;9.38;;;5.38;;
67869;SDS011;54673;52.262;6.830;2023-01-30T03:16:32;5.78;;;4.60;;
67869;SDS011;54673;52.262;6.830;2023-01-30T03:19:01;7.63;;;4.50;;
67869;SDS011;54673;52.262;6.830;2023-01-30T03:21:30;8.38;;;4.65;;
67869;SDS011;54673;52.262;6.830;2023-01-30T03:23:55;6.43;;;4.40;;
67869;SDS011;54673;52.262;6.830;2023-01-30T03:26:25;6.28;;;4.47;;
67869;SDS011;54673;52.262;6.830;2023-01-30T03:28:54;9.47;;;4.60;;
67869;SDS011;54673;52.262;6.830;2023-01-30T03:31:20;5.38;;;4.13;;
67869;SDS011;54673;52.262;6.830;2023-01-30T03:33:46;7.00;;;4.47;;
67869;SDS011;54673;52.262;6.830;2023-01-30T03:36:11;5.97;;;4.15;;
67869;SDS011;54673;52.262;6.830;2023-01-30T03:38:38;7.77;;;4.60;;
67869;SDS011;54673;52.262;6.830;2023-01-30T03:41:03;6.05;;;4.35;;
67869;SDS011;54673;52.262;6.830;2023-01-30T03:43:30;9.10;;;4.20;;
67869;SDS011;54673;52.262;6.830;2023-01-30T03:45:55;7.10;;;4.18;;
67869;SDS011;54673;52.262;6.830;2023-01-30T03:48:21;6.10;;;4.10;;
67869;SDS011;54673;52.262;6.830;2023-01-30T03:50:46;5.88;;;4.07;;
67869;SDS011;54673;52.262;6.830;2023-01-30T03:53:12;5.53;;;4.00;;
67869;SDS011;54673;52.262;6.830;2023-01-30T03:55:38;5.67;;;3.60;;
67869;SDS011;54673;52.262;6.830;2023-01-30T03:58:04;5.90;;;3.65;;
67869;SDS011;54673;52.262;6.830;2023-01-30T04:00:30;4.45;;;3.47;;
67869;SDS011;54673;52.262;6.830;2023-01-30T04:02:55;5.20;;;3.77;;
67869;SDS011;54673;52.262;6.830;2023-01-30T04:05:21;5.73;;;3.33;;
67869;SDS011;54673;52.262;6.830;2023-01-30T04:07:47;6.35;;;4.00;;
67869;SDS011;54673;52.262;6.830;2023-01-30T04:10:13;5.30;;;3.47;;
67869;SDS011;54673;52.262;6.830;2023-01-30T04:12:40;6.40;;;3.70;;
67869;SDS011;54673;52.262;6.830;2023-01-30T04:15:08;5.35;;;3.40;;
67869;SDS011;54673;52.262;6.830;2023-01-30T04:17:34;4.33;;;3.23;;
67869;SDS011;54673;52.262;6.830;2023-01-30T04:20:00;6.30;;;3.55;;
67869;SDS011;54673;52.262;6.830;2023-01-30T04:22:26;4.68;;;3.40;;
67869;SDS011;54673;52.262;6.830;2023-01-30T04:24:51;5.67;;;3.33;;
67869;SDS011;54673;52.262;6.830;2023-01-30T04:27:17;5.70;;;3.10;;
67869;SDS011;54673;52.262;6.830;2023-01-30T04:29:43;4.07;;;2.65;;
67869;SDS011;54673;52.262;6.830;2023-01-30T04:32:08;4.00;;;2.80;;
67869;SDS011;54673;52.262;6.830;2023-01-30T04:34:34;4.95;;;2.97;;
67869;SDS011;54673;52.262;6.830;2023-01-30T04:37:00;4.60;;;3.27;;
67869;SDS011;54673;52.262;6.830;2023-01-30T04:39:25;3.72;;;2.83;;
67869;SDS011;54673;52.262;6.830;2023-01-30T04:41:51;5.30;;;2.73;;
67869;SDS011;54673;52.262;6.830;2023-01-30T04:44:16;3.40;;;2.67;;
67869;SDS011;54673;52.262;6.830;2023-01-30T04:46:42;3.70;;;3.00;;
67869;SDS011;54673;52.262;6.830;2023-01-30T04:49:10;3.87;;;2.40;;
67869;SDS011;54673;52.262;6.830;2023-01-30T04:51:36;4.22;;;2.67;;
67869;SDS011;54673;52.262;6.830;2023-01-30T04:54:02;3.57;;;2.60;;
67869;SDS011;54673;52.262;6.830;2023-01-30T04:56:27;3.50;;;2.50;;
67869;SDS011;54673;52.262;6.830;2023-01-30T04:58:53;3.13;;;2.13;;
67869;SDS011;54673;52.262;6.830;2023-01-30T05:01:23;3.22;;;2.17;;
67869;SDS011;54673;52.262;6.830;2023-01-30T05:03:54;2.83;;;2.37;;
67869;SDS011;54673;52.262;6.830;2023-01-30T05:06:20;3.92;;;2.30;;
67869;SDS011;54673;52.262;6.830;2023-01-30T05:08:47;3.77;;;2.17;;
67869;SDS011;54673;52.262;6.830;2023-01-30T05:11:16;3.65;;;2.10;;
67869;SDS011;54673;52.262;6.830;2023-01-30T05:13:43;2.13;;;1.88;;
67869;SDS011;54673;52.262;6.830;2023-01-30T05:16:09;4.27;;;2.17;;
67869;SDS011;54673;52.262;6.830;2023-01-30T05:18:35;4.43;;;2.20;;
67869;SDS011;54673;52.262;6.830;2023-01-30T05:21:08;3.13;;;2.00;;
67869;SDS011;54673;52.262;6.830;2023-01-30T05:23:38;3.58;;;1.83;;
67869;SDS011;54673;52.262;6.830;2023-01-30T05:26:04;2.47;;;1.75;;
67869;SDS011;54673;52.262;6.830;2023-01-30T05:28:30;4.50;;;2.00;;
67869;SDS011;54673;52.262;6.830;2023-01-30T05:30:59;3.30;;;2.20;;
67869;SDS011;54673;52.262;6.830;2023-01-30T05:33:30;3.47;;;1.97;;
67869;SDS011;54673;52.262;6.830;2023-01-30T05:35:56;3.30;;;1.80;;
67869;SDS011;54673;52.262;6.830;2023-01-30T05:38:23;3.37;;;1.70;;
67869;SDS011;54673;52.262;6.830;2023-01-30T05:40:58;3.40;;;1.45;;
67869;SDS011;54673;52.262;6.830;2023-01-30T05:43:28;2.53;;;1.40;;
67869;SDS011;54673;52.262;6.830;2023-01-30T05:45:55;3.23;;;1.40;;
67869;SDS011;54673;52.262;6.830;2023-01-30T05:48:21;3.05;;;1.50;;
67869;SDS011;54673;52.262;6.830;2023-01-30T05:50:51;3.40;;;1.50;;
67869;SDS011;54673;52.262;6.830;2023-01-30T05:53:18;2.47;;;1.20;;
67869;SDS011;54673;52.262;6.830;2023-01-30T05:55:45;3.50;;;1.55;;
67869;SDS011;54673;52.262;6.830;2023-01-30T05:58:10;2.13;;;1.50;;
67869;SDS011;54673;52.262;6.830;2023-01-30T06:00:36;4.68;;;1.60;;
67869;SDS011;54673;52.262;6.830;2023-01-30T06:03:02;4.33;;;1.60;;
67869;SDS011;54673;52.262;6.830;2023-01-30T06:05:28;4.53;;;1.45;;
67869;SDS011;54673;52.262;6.830;2023-01-30T06:07:53;2.20;;;1.10;;
67869;SDS011;54673;52.262;6.830;2023-01-30T06:10:19;3.10;;;1.37;;
67869;SDS011;54673;52.262;6.830;2023-01-30T06:12:44;2.80;;;1.48;;
67869;SDS011;54673;52.262;6.830;2023-01-30T06:15:10;3.00;;;1.20;;
67869;SDS011;54673;52.262;6.830;2023-01-30T06:17:36;2.35;;;1.20;;
67869;SDS011;54673;52.262;6.830;2023-01-30T06:20:06;3.80;;;1.60;;
67869;SDS011;54673;52.262;6.830;2023-01-30T06:22:31;2.05;;;1.40;;
67869;SDS011;54673;52.262;6.830;2023-01-30T06:24:57;4.13;;;1.13;;
67869;SDS011;54673;52.262;6.830;2023-01-30T06:27:22;2.83;;;1.40;;
67869;SDS011;54673;52.262;6.830;2023-01-30T06:29:48;2.17;;;0.97;;
67869;SDS011;54673;52.262;6.830;2023-01-30T06:32:14;2.53;;;1.10;;
67869;SDS011;54673;52.262;6.830;2023-01-30T06:34:39;3.63;;;1.13;;
67869;SDS011;54673;52.262;6.830;2023-01-30T06:37:05;2.63;;;1.10;;
67869;SDS011;54673;52.262;6.830;2023-01-30T06:39:30;2.65;;;1.17;;
67869;SDS011;54673;52.262;6.830;2023-01-30T06:41:56;3.03;;;1.33;;
67869;SDS011;54673;52.262;6.830;2023-01-30T06:44:21;3.50;;;1.40;;
67869;SDS011;54673;52.262;6.830;2023-01-30T06:46:47;3.30;;;1.40;;
67869;SDS011;54673;52.262;6.830;2023-01-30T06:49:13;2.70;;;0.97;;
67869;SDS011;54673;52.262;6.830;2023-01-30T06:51:38;2.80;;;1.20;;
67869;SDS011;54673;52.262;6.830;2023-01-30T06:54:04;3.38;;;1.35;;
67869;SDS011;54673;52.262;6.830;2023-01-30T06:56:29;3.07;;;1.23;;
67869;SDS011;54673;52.262;6.830;2023-01-30T06:58:55;2.43;;;0.93;;
67869;SDS011;54673;52.262;6.830;2023-01-30T07:01:20;4.23;;;1.20;;
67869;SDS011;54673;52.262;6.830;2023-01-30T07:03:46;1.90;;;1.00;;
67869;SDS011;54673;52.262;6.830;2023-01-30T07:06:12;4.93;;;1.30;;
67869;SDS011;54673;52.262;6.830;2023-01-30T07:08:38;3.90;;;1.40;;
67869;SDS011;54673;52.262;6.830;2023-01-30T07:11:04;4.15;;;1.20;;
67869;SDS011;54673;52.262;6.830;2023-01-30T07:13:31;4.80;;;1.10;;
67869;SDS011;54673;52.262;6.830;2023-01-30T07:15:56;4.60;;;1.63;;
67869;SDS011;54673;52.262;6.830;2023-01-30T07:18:22;3.70;;;1.63;;
67869;SDS011;54673;52.262;6.830;2023-01-30T07:20:48;3.25;;;1.13;;
67869;SDS011;54673;52.262;6.830;2023-01-30T07:23:13;3.93;;;1.03;;
67869;SDS011;54673;52.262;6.830;2023-01-30T07:25:39;1.77;;;1.05;;
67869;SDS011;54673;52.262;6.830;2023-01-30T07:28:05;2.97;;;1.30;;
67869;SDS011;54673;52.262;6.830;2023-01-30T07:30:32;3.65;;;1.10;;
67869;SDS011;54673;52.262;6.830;2023-01-30T07:33:00;2.33;;;1.00;;
67869;SDS011;54673;52.262;6.830;2023-01-30T07:35:28;5.03;;;1.40;;
67869;SDS011;54673;52.262;6.830;2023-01-30T07:37:55;3.08;;;1.08;;
67869;SDS011;54673;52.262;6.830;2023-01-30T07:40:21;7.20;;;1.20;;
67869;SDS011;54673;52.262;6.830;2023-01-30T07:43:00;4.75;;;1.08;;
67869;SDS011;54673;52.262;6.830;2023-01-30T07:45:35;2.05;;;1.10;;
67869;SDS011;54673;52.262;6.830;2023-01-30T07:48:03;4.00;;;1.00;;
67869;SDS011;54673;52.262;6.830;2023-01-30T07:50:29;5.38;;;1.63;;
67869;SDS011;54673;52.262;6.830;2023-01-30T07:52:55;3.57;;;1.10;;
67869;SDS011;54673;52.262;6.830;2023-01-30T07:55:21;2.42;;;1.13;;
67869;SDS011;54673;52.262;6.830;2023-01-30T07:57:46;3.93;;;1.13;;
67869;SDS011;54673;52.262;6.830;2023-01-30T08:00:12;5.47;;;0.90;;
67869;SDS011;54673;52.262;6.830;2023-01-30T08:02:38;4.37;;;1.23;;
67869;SDS011;54673;52.262;6.830;2023-01-30T08:05:04;3.87;;;0.93;;
67869;SDS011;54673;52.262;6.830;2023-01-30T08:07:30;2.57;;;1.00;;
67869;SDS011;54673;52.262;6.830;2023-01-30T08:09:56;2.87;;;1.00;;
67869;SDS011;54673;52.262;6.830;2023-01-30T08:12:21;4.40;;;1.13;;
67869;SDS011;54673;52.262;6.830;2023-01-30T08:14:47;2.70;;;1.17;;
67869;SDS011;54673;52.262;6.830;2023-01-30T08:17:12;3.97;;;1.27;;
67869;SDS011;54673;52.262;6.830;2023-01-30T08:19:38;4.60;;;1.27;;
67869;SDS011;54673;52.262;6.830;2023-01-30T08:22:04;4.10;;;1.10;;
67869;SDS011;54673;52.262;6.830;2023-01-30T08:24:29;2.80;;;1.00;;
67869;SDS011;54673;52.262;6.830;2023-01-30T08:26:55;4.25;;;1.40;;
67869;SDS011;54673;52.262;6.830;2023-01-30T08:29:20;4.03;;;1.40;;
67869;SDS011;54673;52.262;6.830;2023-01-30T08:31:46;4.37;;;1.30;;
67869;SDS011;54673;52.262;6.830;2023-01-30T08:34:12;4.47;;;1.10;;
67869;SDS011;54673;52.262;6.830;2023-01-30T08:36:37;4.70;;;1.33;;
67869;SDS011;54673;52.262;6.830;2023-01-30T08:39:03;3.92;;;1.38;;
67869;SDS011;54673;52.262;6.830;2023-01-30T08:41:29;8.37;;;1.17;;
67869;SDS011;54673;52.262;6.830;2023-01-30T08:43:54;4.30;;;1.50;;
67869;SDS011;54673;52.262;6.830;2023-01-30T08:46:20;6.00;;;1.10;;
67869;SDS011;54673;52.262;6.830;2023-01-30T08:48:46;2.63;;;1.00;;
67869;SDS011;54673;52.262;6.830;2023-01-30T08:51:12;6.37;;;1.23;;
67869;SDS011;54673;52.262;6.830;2023-01-30T08:53:38;4.80;;;1.17;;
67869;SDS011;54673;52.262;6.830;2023-01-30T08:56:03;3.43;;;1.10;;
67869;SDS011;54673;52.262;6.830;2023-01-30T08:58:29;3.97;;;1.10;;
67869;SDS011;54673;52.262;6.830;2023-01-30T09:00:55;4.80;;;1.17;;
67869;SDS011;54673;52.262;6.830;2023-01-30T09:03:20;4.07;;;1.00;;
67869;SDS011;54673;52.262;6.830;2023-01-30T09:05:46;6.77;;;1.33;;
67869;SDS011;54673;52.262;6.830;2023-01-30T09:08:17;4.50;;;1.10;;
67869;SDS011;54673;52.262;6.830;2023-01-30T09:10:43;5.07;;;1.30;;
67869;SDS011;54673;52.262;6.830;2023-01-30T09:13:08;3.10;;;0.93;;
67869;SDS011;54673;52.262;6.830;2023-01-30T09:15:34;3.00;;;1.10;;
67869;SDS011;54673;52.262;6.830;2023-01-30T09:17:59;5.73;;;1.20;;
67869;SDS011;54673;52.262;6.830;2023-01-30T09:20:25;4.63;;;1.00;;
67869;SDS011;54673;52.262;6.830;2023-01-30T09:22:51;4.13;;;1.27;;
67869;SDS011;54673;52.262;6.830;2023-01-30T09:25:16;5.15;;;1.25;;
67869;SDS011;54673;52.262;6.830;2023-01-30T09:27:42;5.17;;;1.37;;
67869;SDS011;54673;52.262;6.830;2023-01-30T09:30:08;4.53;;;1.25;;
67869;SDS011;54673;52.262;6.830;2023-01-30T09:32:34;5.77;;;1.30;;
67869;SDS011;54673;52.262;6.830;2023-01-30T09:35:01;3.88;;;1.05;;
67869;SDS011;54673;52.262;6.830;2023-01-30T09:37:27;4.90;;;1.37;;
67869;SDS011;54673;52.262;6.830;2023-01-30T09:39:53;4.43;;;1.23;;
67869;SDS011;54673;52.262;6.830;2023-01-30T09:42:37;2.93;;;0.83;;
67869;SDS011;54673;52.262;6.830;2023-01-30T09:53:19;6.47;;;1.13;;
67869;SDS011;54673;52.262;6.830;2023-01-30T09:55:56;6.57;;;1.20;;
67869;SDS011;54673;52.262;6.830;2023-01-30T09:58:23;12.00;;;1.60;;
67869;SDS011;54673;52.262;6.830;2023-01-30T10:00:52;17.73;;;2.00;;
67869;SDS011;54673;52.262;6.830;2023-01-30T10:03:28;12.38;;;1.67;;
67869;SDS011;54673;52.262;6.830;2023-01-30T10:05:59;13.48;;;1.42;;
67869;SDS011;54673;52.262;6.830;2023-01-30T10:08:51;9.63;;;1.60;;
67869;SDS011;54673;52.262;6.830;2023-01-30T10:25:19;8.43;;;1.53;;
67869;SDS011;54673;52.262;6.830;2023-01-30T10:28:03;11.55;;;1.65;;
67869;SDS011;54673;52.262;6.830;2023-01-30T10:30:35;11.95;;;1.58;;
67869;SDS011;54673;52.262;6.830;2023-01-30T10:33:12;7.03;;;1.43;;
67869;SDS011;54673;52.262;6.830;2023-01-30T10:35:45;9.40;;;1.50;;
67869;SDS011;54673;52.262;6.830;2023-01-30T10:40:46;8.05;;;1.45;;
67869;SDS011;54673;52.262;6.830;2023-01-30T10:43:19;6.83;;;1.40;;
67869;SDS011;54673;52.262;6.830;2023-01-30T10:48:49;8.18;;;1.33;;
67869;SDS011;54673;52.262;6.830;2023-01-30T10:51:35;12.10;;;1.67;;
67869;SDS011;54673;52.262;6.830;2023-01-30T11:00:00;12.43;;;1.70;;
67869;SDS011;54673;52.262;6.830;2023-01-30T11:04:58;5.77;;;1.10;;
67869;SDS011;54673;52.262;6.830;2023-01-30T11:07:30;5.40;;;1.40;;
67869;SDS011;54673;52.262;6.830;2023-01-30T11:09:57;10.73;;;1.75;;
67869;SDS011;54673;52.262;6.830;2023-01-30T11:12:23;8.43;;;1.23;;
67869;SDS011;54673;52.262;6.830;2023-01-30T11:17:43;5.32;;;1.42;;
67869;SDS011;54673;52.262;6.830;2023-01-30T11:22:51;9.38;;;1.08;;
67869;SDS011;54673;52.262;6.830;2023-01-30T11:25:28;7.15;;;1.13;;
67869;SDS011;54673;52.262;6.830;2023-01-30T11:27:55;16.43;;;1.17;;
67869;SDS011;54673;52.262;6.830;2023-01-30T11:30:26;8.85;;;1.35;;
67869;SDS011;54673;52.262;6.830;2023-01-30T11:33:03;7.30;;;1.67;;
67869;SDS011;54673;52.262;6.830;2023-01-30T11:35:59;9.57;;;1.20;;
67869;SDS011;54673;52.262;6.830;2023-01-30T11:38:55;11.65;;;1.70;;
67869;SDS011;54673;52.262;6.830;2023-01-30T11:41:22;13.73;;;1.77;;
67869;SDS011;54673;52.262;6.830;2023-01-30T11:43:48;9.65;;;1.30;;
67869;SDS011;54673;52.262;6.830;2023-01-30T11:46:17;12.57;;;2.07;;
67869;SDS011;54673;52.262;6.830;2023-01-30T11:51:17;8.88;;;1.50;;
67869;SDS011;54673;52.262;6.830;2023-01-30T11:53:45;6.43;;;1.40;;
67869;SDS011;54673;52.262;6.830;2023-01-30T11:56:26;6.70;;;1.33;;
67869;SDS011;54673;52.262;6.830;2023-01-30T11:59:28;11.27;;;1.17;;
67869;SDS011;54673;52.262;6.830;2023-01-30T12:02:02;9.23;;;1.77;;
67869;SDS011;54673;52.262;6.830;2023-01-30T12:04:30;10.25;;;1.40;;
67869;SDS011;54673;52.262;6.830;2023-01-30T12:07:07;10.70;;;1.63;;
67869;SDS011;54673;52.262;6.830;2023-01-30T12:09:41;7.00;;;1.30;;
67869;SDS011;54673;52.262;6.830;2023-01-30T12:14:51;10.80;;;1.50;;
67869;SDS011;54673;52.262;6.830;2023-01-30T12:17:37;6.53;;;1.80;;
67869;SDS011;54673;52.262;6.830;2023-01-30T12:25:37;6.07;;;1.20;;
67869;SDS011;54673;52.262;6.830;2023-01-30T12:33:57;6.25;;;1.42;;
67869;SDS011;54673;52.262;6.830;2023-01-30T12:45:01;6.43;;;1.40;;
67869;SDS011;54673;52.262;6.830;2023-01-30T12:50:22;6.10;;;1.57;;
67869;SDS011;54673;52.262;6.830;2023-01-30T12:53:13;8.15;;;1.50;;
67869;SDS011;54673;52.262;6.830;2023-01-30T12:58:51;6.97;;;1.90;;
67869;SDS011;54673;52.262;6.830;2023-01-30T13:04:01;6.63;;;1.20;;
67869;SDS011;54673;52.262;6.830;2023-01-30T13:06:57;9.60;;;1.63;;
67869;SDS011;54673;52.262;6.830;2023-01-30T13:23:21;7.90;;;1.10;;
67869;SDS011;54673;52.262;6.830;2023-01-30T13:26:05;7.10;;;1.43;;
67869;SDS011;54673;52.262;6.830;2023-01-30T13:28:42;8.77;;;1.58;;
67869;SDS011;54673;52.262;6.830;2023-01-30T13:31:09;7.63;;;1.10;;
67869;SDS011;54673;52.262;6.830;2023-01-30T13:33:39;7.45;;;1.17;;
67869;SDS011;54673;52.262;6.830;2023-01-30T13:36:13;6.22;;;1.40;;
67869;SDS011;54673;52.262;6.830;2023-01-30T13:38:59;7.20;;;1.50;;
67869;SDS011;54673;52.262;6.830;2023-01-30T13:41:34;3.03;;;0.95;;
67869;SDS011;54673;52.262;6.830;2023-01-30T13:44:06;7.07;;;1.40;;
67869;SDS011;54673;52.262;6.830;2023-01-30T13:46:42;4.53;;;1.00;;
67869;SDS011;54673;52.262;6.830;2023-01-30T13:57:30;6.10;;;0.87;;
67869;SDS011;54673;52.262;6.830;2023-01-30T14:08:24;5.50;;;0.98;;
67869;SDS011;54673;52.262;6.830;2023-01-30T14:10:52;4.40;;;1.13;;
67869;SDS011;54673;52.262;6.830;2023-01-30T14:13:21;8.32;;;1.45;;
67869;SDS011;54673;52.262;6.830;2023-01-30T14:15:52;4.97;;;1.20;;
67869;SDS011;54673;52.262;6.830;2023-01-30T14:18:23;7.60;;;1.17;;
67869;SDS011;54673;52.262;6.830;2023-01-30T14:23:41;7.17;;;1.50;;
67869;SDS011;54673;52.262;6.830;2023-01-30T14:32:06;9.13;;;1.00;;
67869;SDS011;54673;52.262;6.830;2023-01-30T14:40:00;10.73;;;1.20;;
67869;SDS011;54673;52.262;6.830;2023-01-30T14:42:27;9.43;;;1.30;;
67869;SDS011;54673;52.262;6.830;2023-01-30T14:44:58;6.23;;;1.30;;
67869;SDS011;54673;52.262;6.830;2023-01-30T14:47:24;5.82;;;1.00;;
67869;SDS011;54673;52.262;6.830;2023-01-30T14:49:50;13.50;;;1.23;;
67869;SDS011;54673;52.262;6.830;2023-01-30T14:52:21;8.55;;;1.55;;
67869;SDS011;54673;52.262;6.830;2023-01-30T14:54:55;8.95;;;1.05;;
67869;SDS011;54673;52.262;6.830;2023-01-30T14:57:22;7.63;;;1.20;;
67869;SDS011;54673;52.262;6.830;2023-01-30T14:59:57;9.18;;;1.25;;
67869;SDS011;54673;52.262;6.830;2023-01-30T15:02:33;8.30;;;1.00;;
67869;SDS011;54673;52.262;6.830;2023-01-30T15:05:09;7.57;;;1.30;;
67869;SDS011;54673;52.262;6.830;2023-01-30T15:07:40;7.00;;;1.10;;
67869;SDS011;54673;52.262;6.830;2023-01-30T15:15:59;6.43;;;1.30;;
67869;SDS011;54673;52.262;6.830;2023-01-30T15:18:46;5.15;;;1.20;;
67869;SDS011;54673;52.262;6.830;2023-01-30T15:27:33;7.68;;;1.45;;
67869;SDS011;54673;52.262;6.830;2023-01-30T15:32:42;6.72;;;1.33;;
67869;SDS011;54673;52.262;6.830;2023-01-30T15:37:51;5.13;;;1.50;;
67869;SDS011;54673;52.262;6.830;2023-01-30T15:40:19;5.20;;;1.45;;
67869;SDS011;54673;52.262;6.830;2023-01-30T15:43:31;6.57;;;1.10;;
67869;SDS011;54673;52.262;6.830;2023-01-30T15:51:44;6.30;;;1.33;;
67869;SDS011;54673;52.262;6.830;2023-01-30T15:54:12;10.45;;;1.30;;
67869;SDS011;54673;52.262;6.830;2023-01-30T15:56:42;3.20;;;0.83;;
67869;SDS011;54673;52.262;6.830;2023-01-30T15:59:17;6.80;;;0.93;;
67869;SDS011;54673;52.262;6.830;2023-01-30T16:02:12;5.28;;;1.20;;
67869;SDS011;54673;52.262;6.830;2023-01-30T16:04:42;7.40;;;1.33;;
67869;SDS011;54673;52.262;6.830;2023-01-30T16:07:29;5.53;;;1.15;;
67869;SDS011;54673;52.262;6.830;2023-01-30T16:09:54;6.47;;;1.20;;
67869;SDS011;54673;52.262;6.830;2023-01-30T16:12:24;7.43;;;1.00;;
67869;SDS011;54673;52.262;6.830;2023-01-30T16:14:51;6.67;;;1.07;;
67869;SDS011;54673;52.262;6.830;2023-01-30T16:17:22;5.25;;;0.90;;
67869;SDS011;54673;52.262;6.830;2023-01-30T16:19:51;5.32;;;1.30;;
67869;SDS011;54673;52.262;6.830;2023-01-30T16:22:18;5.67;;;0.80;;
67869;SDS011;54673;52.262;6.830;2023-01-30T16:24:47;5.80;;;1.50;;
67869;SDS011;54673;52.262;6.830;2023-01-30T16:27:22;3.90;;;0.93;;
67869;SDS011;54673;52.262;6.830;2023-01-30T16:29:54;7.35;;;1.10;;
67869;SDS011;54673;52.262;6.830;2023-01-30T16:32:26;5.43;;;1.13;;
67869;SDS011;54673;52.262;6.830;2023-01-30T16:37:47;8.93;;;1.20;;
67869;SDS011;54673;52.262;6.830;2023-01-30T16:40:14;9.03;;;1.03;;
67869;SDS011;54673;52.262;6.830;2023-01-30T16:42:58;7.38;;;1.02;;
67869;SDS011;54673;52.262;6.830;2023-01-30T16:51:14;8.93;;;1.10;;
67869;SDS011;54673;52.262;6.830;2023-01-30T16:53:49;5.07;;;1.20;;
67869;SDS011;54673;52.262;6.830;2023-01-30T16:56:26;6.57;;;1.25;;
67869;SDS011;54673;52.262;6.830;2023-01-30T16:58:56;5.78;;;0.90;;
67869;SDS011;54673;52.262;6.830;2023-01-30T17:01:37;4.67;;;1.03;;
67869;SDS011;54673;52.262;6.830;2023-01-30T17:04:06;7.65;;;1.20;;
67869;SDS011;54673;52.262;6.830;2023-01-30T17:06:42;5.17;;;1.10;;
67869;SDS011;54673;52.262;6.830;2023-01-30T17:12:15;5.43;;;1.10;;
67869;SDS011;54673;52.262;6.830;2023-01-30T17:14:49;4.68;;;0.88;;
67869;SDS011;54673;52.262;6.830;2023-01-30T17:17:41;6.50;;;1.00;;
67869;SDS011;54673;52.262;6.830;2023-01-30T17:20:07;6.40;;;1.00;;
67869;SDS011;54673;52.262;6.830;2023-01-30T17:22:35;5.03;;;1.05;;
67869;SDS011;54673;52.262;6.830;2023-01-30T17:28:05;5.82;;;1.17;;
67869;SDS011;54673;52.262;6.830;2023-01-30T17:30:32;5.72;;;0.90;;
67869;SDS011;54673;52.262;6.830;2023-01-30T17:32:58;4.23;;;1.10;;
67869;SDS011;54673;52.262;6.830;2023-01-30T17:35:23;5.20;;;1.30;;
67869;SDS011;54673;52.262;6.830;2023-01-30T17:37:49;5.50;;;1.07;;
67869;SDS011;54673;52.262;6.830;2023-01-30T17:40:16;5.57;;;1.35;;
67869;SDS011;54673;52.262;6.830;2023-01-30T17:42:42;6.07;;;1.40;;
67869;SDS011;54673;52.262;6.830;2023-01-30T17:45:08;5.70;;;1.13;;
67869;SDS011;54673;52.262;6.830;2023-01-30T17:47:34;6.43;;;1.67;;
67869;SDS011;54673;52.262;6.830;2023-01-30T17:50:00;8.45;;;1.15;;
67869;SDS011;54673;52.262;6.830;2023-01-30T17:52:26;3.83;;;1.20;;
67869;SDS011;54673;52.262;6.830;2023-01-30T17:54:51;6.13;;;1.13;;
67869;SDS011;54673;52.262;6.830;2023-01-30T17:57:17;6.23;;;1.20;;
67869;SDS011;54673;52.262;6.830;2023-01-30T17:59:44;7.60;;;1.67;;
67869;SDS011;54673;52.262;6.830;2023-01-30T18:02:10;3.83;;;1.10;;
67869;SDS011;54673;52.262;6.830;2023-01-30T18:04:37;7.55;;;1.20;;
67869;SDS011;54673;52.262;6.830;2023-01-30T18:07:06;6.40;;;1.40;;
67869;SDS011;54673;52.262;6.830;2023-01-30T18:09:35;8.17;;;1.33;;